Forside
METAR-TAF:

METAR-TAF

Lufthavne :

Islamabad, Pakistan

Breddekreds: 33-32-57N, længdekreds: 072-49-32E, højde: 537 m

Aktuelle vejr

Denne rapport blev lavet for 38 minutter siden, kl. 17:55 UTC
Vind 3 kt fra nordvest
Temperatur 15°C
Fugtighed 67%
Tryk 1014 hPa
Sigt: 6000 m

METAR: OPIS 031755Z 31003KT 6000 NSC 15/09 Q1014 NOSIG

Tid: 23:33 (18:33 UTC)

Vejrudsigter

Denne rapport blev lavet for 3 timer og 33 minutter siden, kl. 15:00 UTC
Foreløbig gælder fra 03 på 18 UTC til 04 på 24 UTC
Vind 8 kt fra vest
Sigt: 6000 m
Midlertidig
fra 03 på 23 UTC til 04 på 04 UTC
Vind 8 kt fra vest
Sigt: 4000 m
tåge/dis
ændring
fra 04 på 20 UTC til 04 på 24 UTC
Vind 8 kt fra nordnordvest
Sigt: 4000 m
Nogle få skyer i en højde af 4000 ft
Spredte skyer i en højde af 10000 ft
tåge/dis

TAF: OPIS 031500Z 0318/0424 26008KT 6000 NSC TEMPO 0323/0404 28008KT 4000 HZ BECMG 0420/0424 34008KT 4000 HZ FEW040 SCT100

Vejrobservationer og prognoser fra mere end 4000 lufthavne (METAR og TAF).

De gule og røde prikker repræsenterer de meteorologiske stationer.

Flyt musen over at se navnet på stationen.

Så klik over at se vejr observationer og prognoser.

At skifte det kort: Klik på de grønne knapper med et sort kors for at zoome ind; på den grønne knap med en bindestreg for at zoome ud; eller på de grønne pile for tilstødende kort.


METAR-TAF: